Beverly Hills, California
Current Conditions -  °F | °C
As of 9:51 AM on Monday 24 Nov 2014 (Local Time) from KSMO Reporting Station
Clear Clear  
Wind Chill: 75°   Ceiling: Unl
Heat Index: 75°   Visibility: 10mi
Dew Point: 10°   Wind: 5mph
Humidity: 8%   Direction: NA
Pressure: 30.24"   Gusts: NA
Location:  34.07°N, 118.39°W
Report Text: KSMO 241751Z VRB04KT 10SM CLR 24/M12 A3024 RMK AO2 SLP238 T02391122 10239 20133 51021
Loading
Personal Weather Stations






























Interactive Weather Map New forecast layout! Learn more

10-Day Weather Forecast

Advertisements
Track Severe Weather on mobile